sensor_id;sensor_type;location;lat;lon;timestamp;P1;durP1;ratioP1;P2;durP2;ratioP2
20488;SDS011;10403;54.092;12.122;2024-01-15T00:00:40;9.90;;;2.70;;
20488;SDS011;10403;54.092;12.122;2024-01-15T00:03:08;8.07;;;2.13;;
20488;SDS011;10403;54.092;12.122;2024-01-15T00:05:36;9.13;;;2.40;;
20488;SDS011;10403;54.092;12.122;2024-01-15T00:08:03;7.57;;;2.40;;
20488;SDS011;10403;54.092;12.122;2024-01-15T00:10:31;10.33;;;2.40;;
20488;SDS011;10403;54.092;12.122;2024-01-15T00:12:58;9.37;;;2.17;;
20488;SDS011;10403;54.092;12.122;2024-01-15T00:15:25;8.13;;;2.63;;
20488;SDS011;10403;54.092;12.122;2024-01-15T00:17:55;9.10;;;2.27;;
20488;SDS011;10403;54.092;12.122;2024-01-15T00:20:23;11.97;;;3.27;;
20488;SDS011;10403;54.092;12.122;2024-01-15T00:22:51;9.70;;;2.70;;
20488;SDS011;10403;54.092;12.122;2024-01-15T00:25:19;10.97;;;2.00;;
20488;SDS011;10403;54.092;12.122;2024-01-15T00:27:46;7.90;;;2.73;;
20488;SDS011;10403;54.092;12.122;2024-01-15T00:30:14;14.83;;;2.93;;
20488;SDS011;10403;54.092;12.122;2024-01-15T00:32:41;11.27;;;2.70;;
20488;SDS011;10403;54.092;12.122;2024-01-15T00:35:08;8.93;;;2.50;;
20488;SDS011;10403;54.092;12.122;2024-01-15T00:37:36;9.80;;;2.27;;
20488;SDS011;10403;54.092;12.122;2024-01-15T00:40:04;11.70;;;2.43;;
20488;SDS011;10403;54.092;12.122;2024-01-15T00:42:32;11.13;;;3.27;;
20488;SDS011;10403;54.092;12.122;2024-01-15T00:45:00;12.17;;;2.70;;
20488;SDS011;10403;54.092;12.122;2024-01-15T00:47:27;12.93;;;3.20;;
20488;SDS011;10403;54.092;12.122;2024-01-15T00:49:54;9.33;;;2.90;;
20488;SDS011;10403;54.092;12.122;2024-01-15T00:52:21;14.80;;;3.13;;
20488;SDS011;10403;54.092;12.122;2024-01-15T00:54:48;10.30;;;2.67;;
20488;SDS011;10403;54.092;12.122;2024-01-15T00:57:16;12.33;;;2.70;;
20488;SDS011;10403;54.092;12.122;2024-01-15T00:59:47;7.13;;;2.67;;
20488;SDS011;10403;54.092;12.122;2024-01-15T01:02:15;14.53;;;2.70;;
20488;SDS011;10403;54.092;12.122;2024-01-15T01:04:42;13.27;;;2.80;;
20488;SDS011;10403;54.092;12.122;2024-01-15T01:07:09;12.73;;;2.50;;
20488;SDS011;10403;54.092;12.122;2024-01-15T01:09:36;8.67;;;2.40;;
20488;SDS011;10403;54.092;12.122;2024-01-15T01:12:04;11.13;;;2.40;;
20488;SDS011;10403;54.092;12.122;2024-01-15T01:14:31;14.43;;;3.47;;
20488;SDS011;10403;54.092;12.122;2024-01-15T01:16:59;10.63;;;2.57;;
20488;SDS011;10403;54.092;12.122;2024-01-15T01:19:26;19.10;;;3.20;;
20488;SDS011;10403;54.092;12.122;2024-01-15T01:21:53;15.70;;;2.87;;
20488;SDS011;10403;54.092;12.122;2024-01-15T01:24:21;13.23;;;4.13;;
20488;SDS011;10403;54.092;12.122;2024-01-15T01:26:48;14.73;;;2.90;;
20488;SDS011;10403;54.092;12.122;2024-01-15T01:29:15;10.77;;;2.60;;
20488;SDS011;10403;54.092;12.122;2024-01-15T01:31:46;12.33;;;2.97;;
20488;SDS011;10403;54.092;12.122;2024-01-15T01:34:14;12.73;;;2.93;;
20488;SDS011;10403;54.092;12.122;2024-01-15T01:36:43;12.03;;;2.50;;
20488;SDS011;10403;54.092;12.122;2024-01-15T01:39:11;16.40;;;2.83;;
20488;SDS011;10403;54.092;12.122;2024-01-15T01:41:38;6.87;;;2.63;;
20488;SDS011;10403;54.092;12.122;2024-01-15T01:44:06;20.93;;;3.00;;
20488;SDS011;10403;54.092;12.122;2024-01-15T01:46:34;8.93;;;2.30;;
20488;SDS011;10403;54.092;12.122;2024-01-15T01:49:07;7.70;;;2.17;;
20488;SDS011;10403;54.092;12.122;2024-01-15T01:51:36;9.53;;;2.00;;
20488;SDS011;10403;54.092;12.122;2024-01-15T01:54:06;20.40;;;3.07;;
20488;SDS011;10403;54.092;12.122;2024-01-15T01:56:38;12.93;;;2.70;;
20488;SDS011;10403;54.092;12.122;2024-01-15T01:59:06;11.97;;;2.30;;
20488;SDS011;10403;54.092;12.122;2024-01-15T02:01:37;10.23;;;2.33;;
20488;SDS011;10403;54.092;12.122;2024-01-15T02:04:06;11.33;;;2.40;;
20488;SDS011;10403;54.092;12.122;2024-01-15T02:06:33;10.33;;;2.33;;
20488;SDS011;10403;54.092;12.122;2024-01-15T02:09:01;5.07;;;1.97;;
20488;SDS011;10403;54.092;12.122;2024-01-15T02:11:28;8.27;;;2.07;;
20488;SDS011;10403;54.092;12.122;2024-01-15T02:13:55;9.83;;;2.37;;
20488;SDS011;10403;54.092;12.122;2024-01-15T02:16:23;8.80;;;2.33;;
20488;SDS011;10403;54.092;12.122;2024-01-15T02:18:50;7.47;;;2.00;;
20488;SDS011;10403;54.092;12.122;2024-01-15T02:21:17;11.43;;;2.90;;
20488;SDS011;10403;54.092;12.122;2024-01-15T02:23:44;11.43;;;2.90;;
20488;SDS011;10403;54.092;12.122;2024-01-15T02:26:12;13.10;;;3.20;;
20488;SDS011;10403;54.092;12.122;2024-01-15T02:28:40;11.00;;;2.63;;
20488;SDS011;10403;54.092;12.122;2024-01-15T02:31:10;10.30;;;2.60;;
20488;SDS011;10403;54.092;12.122;2024-01-15T02:33:38;11.27;;;2.37;;
20488;SDS011;10403;54.092;12.122;2024-01-15T02:36:05;15.17;;;2.47;;
20488;SDS011;10403;54.092;12.122;2024-01-15T02:38:33;11.43;;;2.13;;
20488;SDS011;10403;54.092;12.122;2024-01-15T02:41:00;16.20;;;3.00;;
20488;SDS011;10403;54.092;12.122;2024-01-15T02:43:27;17.93;;;2.97;;
20488;SDS011;10403;54.092;12.122;2024-01-15T02:45:55;10.50;;;2.20;;
20488;SDS011;10403;54.092;12.122;2024-01-15T02:48:22;13.93;;;2.90;;
20488;SDS011;10403;54.092;12.122;2024-01-15T02:50:49;11.50;;;2.57;;
20488;SDS011;10403;54.092;12.122;2024-01-15T02:53:16;10.50;;;3.10;;
20488;SDS011;10403;54.092;12.122;2024-01-15T02:55:44;13.57;;;2.40;;
20488;SDS011;10403;54.092;12.122;2024-01-15T02:58:11;19.53;;;3.00;;
20488;SDS011;10403;54.092;12.122;2024-01-15T03:00:38;13.70;;;2.80;;
20488;SDS011;10403;54.092;12.122;2024-01-15T03:03:05;15.50;;;2.93;;
20488;SDS011;10403;54.092;12.122;2024-01-15T03:05:34;9.40;;;2.60;;
20488;SDS011;10403;54.092;12.122;2024-01-15T03:08:02;11.93;;;2.67;;
20488;SDS011;10403;54.092;12.122;2024-01-15T03:10:30;14.17;;;2.50;;
20488;SDS011;10403;54.092;12.122;2024-01-15T03:12:57;11.70;;;2.73;;
20488;SDS011;10403;54.092;12.122;2024-01-15T03:15:25;21.67;;;3.10;;
20488;SDS011;10403;54.092;12.122;2024-01-15T03:17:52;8.27;;;2.30;;
20488;SDS011;10403;54.092;12.122;2024-01-15T03:20:19;14.77;;;2.70;;
20488;SDS011;10403;54.092;12.122;2024-01-15T03:22:46;16.00;;;2.80;;
20488;SDS011;10403;54.092;12.122;2024-01-15T03:25:14;14.63;;;3.33;;
20488;SDS011;10403;54.092;12.122;2024-01-15T03:27:41;18.07;;;3.83;;
20488;SDS011;10403;54.092;12.122;2024-01-15T03:30:08;17.33;;;2.97;;
20488;SDS011;10403;54.092;12.122;2024-01-15T03:32:36;14.50;;;3.23;;
20488;SDS011;10403;54.092;12.122;2024-01-15T03:35:04;23.77;;;3.30;;
20488;SDS011;10403;54.092;12.122;2024-01-15T03:37:32;14.07;;;2.77;;
20488;SDS011;10403;54.092;12.122;2024-01-15T03:39:59;14.70;;;3.07;;
20488;SDS011;10403;54.092;12.122;2024-01-15T03:42:26;10.27;;;2.83;;
20488;SDS011;10403;54.092;12.122;2024-01-15T03:44:53;20.53;;;3.60;;
20488;SDS011;10403;54.092;12.122;2024-01-15T03:47:21;18.30;;;3.30;;
20488;SDS011;10403;54.092;12.122;2024-01-15T03:49:48;12.63;;;2.63;;
20488;SDS011;10403;54.092;12.122;2024-01-15T03:52:15;13.50;;;3.20;;
20488;SDS011;10403;54.092;12.122;2024-01-15T03:54:43;19.23;;;3.00;;
20488;SDS011;10403;54.092;12.122;2024-01-15T03:57:10;16.40;;;3.13;;
20488;SDS011;10403;54.092;12.122;2024-01-15T03:59:37;16.73;;;3.70;;
20488;SDS011;10403;54.092;12.122;2024-01-15T04:02:07;19.20;;;3.20;;
20488;SDS011;10403;54.092;12.122;2024-01-15T04:04:34;18.60;;;4.30;;
20488;SDS011;10403;54.092;12.122;2024-01-15T04:07:02;17.10;;;2.90;;
20488;SDS011;10403;54.092;12.122;2024-01-15T04:09:29;16.50;;;4.00;;
20488;SDS011;10403;54.092;12.122;2024-01-15T04:11:57;16.53;;;3.33;;
20488;SDS011;10403;54.092;12.122;2024-01-15T04:14:24;21.67;;;3.33;;
20488;SDS011;10403;54.092;12.122;2024-01-15T04:16:51;15.20;;;3.30;;
20488;SDS011;10403;54.092;12.122;2024-01-15T04:19:18;12.73;;;2.67;;
20488;SDS011;10403;54.092;12.122;2024-01-15T04:21:45;16.70;;;3.67;;
20488;SDS011;10403;54.092;12.122;2024-01-15T04:24:13;19.00;;;2.87;;
20488;SDS011;10403;54.092;12.122;2024-01-15T04:26:41;10.87;;;2.80;;
20488;SDS011;10403;54.092;12.122;2024-01-15T04:29:09;11.80;;;2.70;;
20488;SDS011;10403;54.092;12.122;2024-01-15T04:31:36;13.97;;;3.53;;
20488;SDS011;10403;54.092;12.122;2024-01-15T04:34:04;12.90;;;3.53;;
20488;SDS011;10403;54.092;12.122;2024-01-15T04:36:31;17.17;;;3.30;;
20488;SDS011;10403;54.092;12.122;2024-01-15T04:38:58;13.40;;;3.03;;
20488;SDS011;10403;54.092;12.122;2024-01-15T04:41:26;11.50;;;2.83;;
20488;SDS011;10403;54.092;12.122;2024-01-15T04:43:53;11.27;;;2.83;;
20488;SDS011;10403;54.092;12.122;2024-01-15T04:46:20;14.97;;;2.53;;
20488;SDS011;10403;54.092;12.122;2024-01-15T04:48:47;14.00;;;3.67;;
20488;SDS011;10403;54.092;12.122;2024-01-15T04:51:15;15.63;;;2.60;;
20488;SDS011;10403;54.092;12.122;2024-01-15T04:53:42;12.40;;;2.53;;
20488;SDS011;10403;54.092;12.122;2024-01-15T04:56:09;13.57;;;2.90;;
20488;SDS011;10403;54.092;12.122;2024-01-15T04:58:36;12.57;;;2.27;;
20488;SDS011;10403;54.092;12.122;2024-01-15T05:01:03;9.30;;;2.80;;
20488;SDS011;10403;54.092;12.122;2024-01-15T05:03:31;12.93;;;3.50;;
20488;SDS011;10403;54.092;12.122;2024-01-15T05:05:58;12.73;;;2.73;;
20488;SDS011;10403;54.092;12.122;2024-01-15T05:08:26;9.43;;;2.67;;
20488;SDS011;10403;54.092;12.122;2024-01-15T05:10:53;10.33;;;2.50;;
20488;SDS011;10403;54.092;12.122;2024-01-15T05:13:20;16.00;;;2.50;;
20488;SDS011;10403;54.092;12.122;2024-01-15T05:15:47;10.97;;;2.97;;
20488;SDS011;10403;54.092;12.122;2024-01-15T05:18:15;5.43;;;1.97;;
20488;SDS011;10403;54.092;12.122;2024-01-15T05:20:43;13.57;;;2.20;;
20488;SDS011;10403;54.092;12.122;2024-01-15T05:23:10;13.83;;;2.37;;
20488;SDS011;10403;54.092;12.122;2024-01-15T05:25:38;12.27;;;2.87;;
20488;SDS011;10403;54.092;12.122;2024-01-15T05:28:05;12.10;;;2.43;;
20488;SDS011;10403;54.092;12.122;2024-01-15T05:30:33;9.23;;;2.17;;
20488;SDS011;10403;54.092;12.122;2024-01-15T05:33:00;9.37;;;2.33;;
20488;SDS011;10403;54.092;12.122;2024-01-15T05:35:28;7.70;;;2.77;;
20488;SDS011;10403;54.092;12.122;2024-01-15T05:37:55;10.87;;;2.27;;
20488;SDS011;10403;54.092;12.122;2024-01-15T05:40:22;9.87;;;2.37;;
20488;SDS011;10403;54.092;12.122;2024-01-15T05:42:50;10.73;;;2.17;;
20488;SDS011;10403;54.092;12.122;2024-01-15T05:45:17;15.70;;;2.40;;
20488;SDS011;10403;54.092;12.122;2024-01-15T05:47:44;7.70;;;1.90;;
20488;SDS011;10403;54.092;12.122;2024-01-15T05:50:11;11.97;;;2.33;;
20488;SDS011;10403;54.092;12.122;2024-01-15T05:52:39;13.40;;;2.60;;
20488;SDS011;10403;54.092;12.122;2024-01-15T05:55:06;11.33;;;2.10;;
20488;SDS011;10403;54.092;12.122;2024-01-15T05:57:34;10.60;;;2.60;;
20488;SDS011;10403;54.092;12.122;2024-01-15T06:00:01;10.50;;;2.17;;
20488;SDS011;10403;54.092;12.122;2024-01-15T06:02:29;5.77;;;1.80;;
20488;SDS011;10403;54.092;12.122;2024-01-15T06:04:56;6.13;;;1.60;;
20488;SDS011;10403;54.092;12.122;2024-01-15T06:07:24;7.73;;;1.77;;
20488;SDS011;10403;54.092;12.122;2024-01-15T06:09:51;5.57;;;1.87;;
20488;SDS011;10403;54.092;12.122;2024-01-15T06:12:18;7.43;;;1.90;;
20488;SDS011;10403;54.092;12.122;2024-01-15T06:14:46;12.80;;;2.13;;
20488;SDS011;10403;54.092;12.122;2024-01-15T06:17:13;6.57;;;1.87;;
20488;SDS011;10403;54.092;12.122;2024-01-15T06:19:40;7.67;;;1.87;;
20488;SDS011;10403;54.092;12.122;2024-01-15T06:22:08;7.97;;;2.20;;
20488;SDS011;10403;54.092;12.122;2024-01-15T06:24:35;7.10;;;1.70;;
20488;SDS011;10403;54.092;12.122;2024-01-15T06:27:02;11.53;;;1.90;;
20488;SDS011;10403;54.092;12.122;2024-01-15T06:29:29;7.57;;;2.70;;
20488;SDS011;10403;54.092;12.122;2024-01-15T06:31:57;9.27;;;1.60;;
20488;SDS011;10403;54.092;12.122;2024-01-15T06:34:24;6.20;;;1.80;;
20488;SDS011;10403;54.092;12.122;2024-01-15T06:36:51;4.80;;;1.53;;
20488;SDS011;10403;54.092;12.122;2024-01-15T06:39:19;8.83;;;1.73;;
20488;SDS011;10403;54.092;12.122;2024-01-15T06:41:46;5.77;;;1.60;;
20488;SDS011;10403;54.092;12.122;2024-01-15T06:44:14;12.10;;;2.80;;
20488;SDS011;10403;54.092;12.122;2024-01-15T06:46:42;4.67;;;1.80;;
20488;SDS011;10403;54.092;12.122;2024-01-15T06:49:10;10.00;;;1.63;;
20488;SDS011;10403;54.092;12.122;2024-01-15T06:51:39;5.33;;;1.57;;
20488;SDS011;10403;54.092;12.122;2024-01-15T06:54:06;6.40;;;1.47;;
20488;SDS011;10403;54.092;12.122;2024-01-15T06:56:33;5.20;;;1.43;;
20488;SDS011;10403;54.092;12.122;2024-01-15T06:59:01;2.03;;;1.37;;
20488;SDS011;10403;54.092;12.122;2024-01-15T07:01:29;4.97;;;1.30;;
20488;SDS011;10403;54.092;12.122;2024-01-15T07:03:56;1.93;;;1.10;;
20488;SDS011;10403;54.092;12.122;2024-01-15T07:06:24;4.80;;;1.30;;
20488;SDS011;10403;54.092;12.122;2024-01-15T07:08:51;5.10;;;2.30;;
20488;SDS011;10403;54.092;12.122;2024-01-15T07:11:18;3.57;;;1.83;;
20488;SDS011;10403;54.092;12.122;2024-01-15T07:13:46;2.90;;;1.40;;
20488;SDS011;10403;54.092;12.122;2024-01-15T07:16:13;2.77;;;1.50;;
20488;SDS011;10403;54.092;12.122;2024-01-15T07:18:51;4.10;;;1.40;;
20488;SDS011;10403;54.092;12.122;2024-01-15T07:21:18;4.90;;;1.10;;
20488;SDS011;10403;54.092;12.122;2024-01-15T07:23:45;4.07;;;1.43;;
20488;SDS011;10403;54.092;12.122;2024-01-15T07:26:13;2.70;;;1.63;;
20488;SDS011;10403;54.092;12.122;2024-01-15T07:28:40;2.63;;;1.40;;
20488;SDS011;10403;54.092;12.122;2024-01-15T07:31:08;5.53;;;1.40;;
20488;SDS011;10403;54.092;12.122;2024-01-15T07:33:35;7.63;;;1.40;;
20488;SDS011;10403;54.092;12.122;2024-01-15T07:36:03;3.40;;;1.50;;
20488;SDS011;10403;54.092;12.122;2024-01-15T07:38:30;3.20;;;2.00;;
20488;SDS011;10403;54.092;12.122;2024-01-15T07:40:58;2.50;;;1.40;;
20488;SDS011;10403;54.092;12.122;2024-01-15T07:43:25;2.90;;;1.70;;
20488;SDS011;10403;54.092;12.122;2024-01-15T07:45:54;2.70;;;1.53;;
20488;SDS011;10403;54.092;12.122;2024-01-15T07:48:21;6.37;;;1.83;;
20488;SDS011;10403;54.092;12.122;2024-01-15T07:50:49;4.77;;;1.63;;
20488;SDS011;10403;54.092;12.122;2024-01-15T07:53:16;4.57;;;1.30;;
20488;SDS011;10403;54.092;12.122;2024-01-15T07:55:44;6.13;;;1.40;;
20488;SDS011;10403;54.092;12.122;2024-01-15T07:58:12;7.37;;;1.67;;
20488;SDS011;10403;54.092;12.122;2024-01-15T08:00:42;5.60;;;1.47;;
20488;SDS011;10403;54.092;12.122;2024-01-15T08:03:10;6.30;;;1.63;;
20488;SDS011;10403;54.092;12.122;2024-01-15T08:05:39;11.67;;;1.80;;
20488;SDS011;10403;54.092;12.122;2024-01-15T08:08:07;7.53;;;1.83;;
20488;SDS011;10403;54.092;12.122;2024-01-15T08:10:34;4.20;;;1.63;;
20488;SDS011;10403;54.092;12.122;2024-01-15T08:13:02;5.17;;;1.80;;
20488;SDS011;10403;54.092;12.122;2024-01-15T08:15:29;4.87;;;1.70;;
20488;SDS011;10403;54.092;12.122;2024-01-15T08:17:57;3.37;;;1.47;;
20488;SDS011;10403;54.092;12.122;2024-01-15T08:20:26;4.10;;;1.67;;
20488;SDS011;10403;54.092;12.122;2024-01-15T08:22:53;4.57;;;1.80;;
20488;SDS011;10403;54.092;12.122;2024-01-15T08:25:20;5.87;;;1.70;;
20488;SDS011;10403;54.092;12.122;2024-01-15T08:27:48;4.60;;;1.90;;
20488;SDS011;10403;54.092;12.122;2024-01-15T08:30:15;7.23;;;1.70;;
20488;SDS011;10403;54.092;12.122;2024-01-15T08:32:43;9.40;;;2.33;;
20488;SDS011;10403;54.092;12.122;2024-01-15T08:35:10;5.87;;;1.70;;
20488;SDS011;10403;54.092;12.122;2024-01-15T08:37:38;5.67;;;1.53;;
20488;SDS011;10403;54.092;12.122;2024-01-15T08:40:06;4.40;;;1.30;;
20488;SDS011;10403;54.092;12.122;2024-01-15T08:42:33;8.97;;;1.67;;
20488;SDS011;10403;54.092;12.122;2024-01-15T08:45:01;9.77;;;2.00;;
20488;SDS011;10403;54.092;12.122;2024-01-15T08:47:29;7.13;;;1.50;;
20488;SDS011;10403;54.092;12.122;2024-01-15T08:49:56;9.50;;;2.10;;
20488;SDS011;10403;54.092;12.122;2024-01-15T08:52:25;8.83;;;2.23;;
20488;SDS011;10403;54.092;12.122;2024-01-15T08:54:54;4.93;;;1.50;;
20488;SDS011;10403;54.092;12.122;2024-01-15T08:57:23;4.60;;;1.30;;
20488;SDS011;10403;54.092;12.122;2024-01-15T08:59:50;8.43;;;1.97;;
20488;SDS011;10403;54.092;12.122;2024-01-15T09:02:19;7.17;;;1.90;;
20488;SDS011;10403;54.092;12.122;2024-01-15T09:04:47;8.20;;;1.77;;
20488;SDS011;10403;54.092;12.122;2024-01-15T09:07:14;6.47;;;1.93;;
20488;SDS011;10403;54.092;12.122;2024-01-15T09:09:42;3.50;;;1.77;;
20488;SDS011;10403;54.092;12.122;2024-01-15T09:12:09;8.73;;;2.80;;
20488;SDS011;10403;54.092;12.122;2024-01-15T09:14:39;5.63;;;2.13;;
20488;SDS011;10403;54.092;12.122;2024-01-15T09:17:07;7.43;;;1.87;;
20488;SDS011;10403;54.092;12.122;2024-01-15T09:19:34;5.07;;;1.77;;
20488;SDS011;10403;54.092;12.122;2024-01-15T09:22:02;8.03;;;2.00;;
20488;SDS011;10403;54.092;12.122;2024-01-15T09:24:29;4.63;;;1.63;;
20488;SDS011;10403;54.092;12.122;2024-01-15T09:26:57;4.80;;;1.90;;
20488;SDS011;10403;54.092;12.122;2024-01-15T09:29:24;7.07;;;2.63;;
20488;SDS011;10403;54.092;12.122;2024-01-15T09:31:52;6.57;;;1.87;;
20488;SDS011;10403;54.092;12.122;2024-01-15T09:34:20;5.43;;;1.67;;
20488;SDS011;10403;54.092;12.122;2024-01-15T09:36:47;8.77;;;2.07;;
20488;SDS011;10403;54.092;12.122;2024-01-15T09:39:15;3.17;;;1.47;;
20488;SDS011;10403;54.092;12.122;2024-01-15T09:41:43;4.93;;;2.00;;
20488;SDS011;10403;54.092;12.122;2024-01-15T09:44:10;4.10;;;1.77;;
20488;SDS011;10403;54.092;12.122;2024-01-15T09:46:39;10.63;;;1.80;;
20488;SDS011;10403;54.092;12.122;2024-01-15T09:49:08;2.80;;;1.60;;
20488;SDS011;10403;54.092;12.122;2024-01-15T09:51:35;4.00;;;2.00;;
20488;SDS011;10403;54.092;12.122;2024-01-15T09:54:05;5.67;;;2.20;;
20488;SDS011;10403;54.092;12.122;2024-01-15T09:56:33;5.27;;;1.53;;
20488;SDS011;10403;54.092;12.122;2024-01-15T09:59:00;4.70;;;1.90;;
20488;SDS011;10403;54.092;12.122;2024-01-15T10:01:28;3.57;;;2.00;;
20488;SDS011;10403;54.092;12.122;2024-01-15T10:03:58;4.83;;;1.80;;
20488;SDS011;10403;54.092;12.122;2024-01-15T10:06:26;2.70;;;1.70;;
20488;SDS011;10403;54.092;12.122;2024-01-15T10:08:55;5.80;;;1.60;;
20488;SDS011;10403;54.092;12.122;2024-01-15T10:11:25;7.70;;;2.17;;
20488;SDS011;10403;54.092;12.122;2024-01-15T10:13:52;5.53;;;1.67;;
20488;SDS011;10403;54.092;12.122;2024-01-15T10:16:23;2.83;;;1.53;;
20488;SDS011;10403;54.092;12.122;2024-01-15T10:18:50;4.77;;;1.77;;
20488;SDS011;10403;54.092;12.122;2024-01-15T10:21:18;6.33;;;1.70;;
20488;SDS011;10403;54.092;12.122;2024-01-15T10:23:46;8.10;;;2.13;;
20488;SDS011;10403;54.092;12.122;2024-01-15T10:26:13;5.20;;;1.70;;
20488;SDS011;10403;54.092;12.122;2024-01-15T10:28:45;6.90;;;1.60;;
20488;SDS011;10403;54.092;12.122;2024-01-15T10:31:17;6.07;;;1.77;;
20488;SDS011;10403;54.092;12.122;2024-01-15T10:33:46;3.37;;;1.60;;
20488;SDS011;10403;54.092;12.122;2024-01-15T10:36:15;3.60;;;1.40;;
20488;SDS011;10403;54.092;12.122;2024-01-15T10:38:44;2.47;;;1.73;;
20488;SDS011;10403;54.092;12.122;2024-01-15T10:41:13;3.83;;;1.97;;
20488;SDS011;10403;54.092;12.122;2024-01-15T10:43:40;3.87;;;1.90;;
20488;SDS011;10403;54.092;12.122;2024-01-15T10:46:08;4.57;;;1.83;;
20488;SDS011;10403;54.092;12.122;2024-01-15T10:48:37;6.10;;;2.00;;
20488;SDS011;10403;54.092;12.122;2024-01-15T10:51:05;6.77;;;2.10;;
20488;SDS011;10403;54.092;12.122;2024-01-15T10:53:38;3.10;;;1.70;;
20488;SDS011;10403;54.092;12.122;2024-01-15T10:56:07;4.00;;;1.70;;
20488;SDS011;10403;54.092;12.122;2024-01-15T10:58:36;8.80;;;1.70;;
20488;SDS011;10403;54.092;12.122;2024-01-15T11:01:06;6.17;;;1.60;;
20488;SDS011;10403;54.092;12.122;2024-01-15T11:03:34;3.83;;;1.57;;
20488;SDS011;10403;54.092;12.122;2024-01-15T11:06:03;6.53;;;1.80;;
20488;SDS011;10403;54.092;12.122;2024-01-15T11:08:50;7.83;;;2.03;;
20488;SDS011;10403;54.092;12.122;2024-01-15T11:11:20;7.20;;;1.90;;
20488;SDS011;10403;54.092;12.122;2024-01-15T11:13:48;3.80;;;1.77;;
20488;SDS011;10403;54.092;12.122;2024-01-15T11:16:18;7.83;;;2.53;;
20488;SDS011;10403;54.092;12.122;2024-01-15T11:21:25;6.33;;;1.70;;
20488;SDS011;10403;54.092;12.122;2024-01-15T11:23:55;2.77;;;1.70;;
20488;SDS011;10403;54.092;12.122;2024-01-15T11:31:57;6.77;;;1.83;;
20488;SDS011;10403;54.092;12.122;2024-01-15T11:34:49;3.30;;;1.37;;
20488;SDS011;10403;54.092;12.122;2024-01-15T11:37:39;3.63;;;1.50;;
20488;SDS011;10403;54.092;12.122;2024-01-15T11:40:22;5.80;;;1.50;;
20488;SDS011;10403;54.092;12.122;2024-01-15T11:43:05;3.17;;;1.50;;
20488;SDS011;10403;54.092;12.122;2024-01-15T11:45:36;3.60;;;1.67;;
20488;SDS011;10403;54.092;12.122;2024-01-15T11:48:09;4.50;;;1.73;;
20488;SDS011;10403;54.092;12.122;2024-01-15T11:50:45;4.87;;;1.67;;
20488;SDS011;10403;54.092;12.122;2024-01-15T11:55:51;5.70;;;1.50;;
20488;SDS011;10403;54.092;12.122;2024-01-15T11:58:22;5.97;;;1.93;;
20488;SDS011;10403;54.092;12.122;2024-01-15T12:00:49;5.40;;;1.50;;
20488;SDS011;10403;54.092;12.122;2024-01-15T12:03:23;2.37;;;1.70;;
20488;SDS011;10403;54.092;12.122;2024-01-15T12:05:52;5.77;;;1.67;;
20488;SDS011;10403;54.092;12.122;2024-01-15T12:08:23;3.77;;;1.87;;
20488;SDS011;10403;54.092;12.122;2024-01-15T12:10:50;3.47;;;1.63;;
20488;SDS011;10403;54.092;12.122;2024-01-15T12:13:18;10.20;;;1.70;;
20488;SDS011;10403;54.092;12.122;2024-01-15T12:15:47;6.17;;;1.40;;
20488;SDS011;10403;54.092;12.122;2024-01-15T12:18:17;2.30;;;1.53;;
20488;SDS011;10403;54.092;12.122;2024-01-15T12:20:46;3.07;;;1.40;;
20488;SDS011;10403;54.092;12.122;2024-01-15T12:23:15;4.50;;;1.37;;
20488;SDS011;10403;54.092;12.122;2024-01-15T12:25:44;3.60;;;1.50;;
20488;SDS011;10403;54.092;12.122;2024-01-15T12:28:12;5.47;;;1.70;;
20488;SDS011;10403;54.092;12.122;2024-01-15T12:30:41;5.17;;;1.70;;
20488;SDS011;10403;54.092;12.122;2024-01-15T12:33:09;4.70;;;1.77;;
20488;SDS011;10403;54.092;12.122;2024-01-15T12:35:37;5.63;;;1.30;;
20488;SDS011;10403;54.092;12.122;2024-01-15T12:38:04;3.57;;;1.97;;
20488;SDS011;10403;54.092;12.122;2024-01-15T12:40:33;4.37;;;1.57;;
20488;SDS011;10403;54.092;12.122;2024-01-15T12:43:03;6.13;;;1.43;;
20488;SDS011;10403;54.092;12.122;2024-01-15T12:45:33;4.00;;;1.50;;
20488;SDS011;10403;54.092;12.122;2024-01-15T12:48:02;4.47;;;1.40;;
20488;SDS011;10403;54.092;12.122;2024-01-15T12:50:32;3.23;;;1.90;;
20488;SDS011;10403;54.092;12.122;2024-01-15T12:53:01;6.73;;;1.77;;
20488;SDS011;10403;54.092;12.122;2024-01-15T12:55:29;7.37;;;1.97;;
20488;SDS011;10403;54.092;12.122;2024-01-15T12:57:56;4.80;;;1.53;;
20488;SDS011;10403;54.092;12.122;2024-01-15T13:00:24;5.30;;;1.60;;
20488;SDS011;10403;54.092;12.122;2024-01-15T13:02:53;6.33;;;1.87;;
20488;SDS011;10403;54.092;12.122;2024-01-15T13:05:24;3.33;;;1.40;;
20488;SDS011;10403;54.092;12.122;2024-01-15T13:07:54;4.07;;;1.60;;
20488;SDS011;10403;54.092;12.122;2024-01-15T13:10:22;4.93;;;1.50;;
20488;SDS011;10403;54.092;12.122;2024-01-15T13:12:52;5.53;;;1.87;;
20488;SDS011;10403;54.092;12.122;2024-01-15T13:15:20;5.00;;;1.60;;
20488;SDS011;10403;54.092;12.122;2024-01-15T13:17:47;5.27;;;1.53;;
20488;SDS011;10403;54.092;12.122;2024-01-15T13:20:15;3.60;;;1.60;;
20488;SDS011;10403;54.092;12.122;2024-01-15T13:22:43;2.70;;;1.60;;
20488;SDS011;10403;54.092;12.122;2024-01-15T13:25:12;8.90;;;1.80;;
20488;SDS011;10403;54.092;12.122;2024-01-15T13:27:40;9.87;;;2.00;;
20488;SDS011;10403;54.092;12.122;2024-01-15T13:30:09;4.90;;;2.07;;
20488;SDS011;10403;54.092;12.122;2024-01-15T13:32:39;4.73;;;1.50;;
20488;SDS011;10403;54.092;12.122;2024-01-15T13:35:06;8.07;;;1.80;;
20488;SDS011;10403;54.092;12.122;2024-01-15T13:37:37;5.60;;;1.50;;
20488;SDS011;10403;54.092;12.122;2024-01-15T13:40:05;6.07;;;1.87;;
20488;SDS011;10403;54.092;12.122;2024-01-15T13:42:35;3.20;;;2.23;;
20488;SDS011;10403;54.092;12.122;2024-01-15T13:45:05;7.27;;;1.93;;
20488;SDS011;10403;54.092;12.122;2024-01-15T13:47:34;10.30;;;1.80;;
20488;SDS011;10403;54.092;12.122;2024-01-15T13:50:02;3.87;;;1.40;;
20488;SDS011;10403;54.092;12.122;2024-01-15T13:52:30;3.13;;;1.83;;
20488;SDS011;10403;54.092;12.122;2024-01-15T13:54:58;2.70;;;1.80;;
20488;SDS011;10403;54.092;12.122;2024-01-15T13:57:26;4.40;;;2.10;;
20488;SDS011;10403;54.092;12.122;2024-01-15T13:59:54;4.00;;;1.80;;
20488;SDS011;10403;54.092;12.122;2024-01-15T14:02:21;3.00;;;1.43;;
20488;SDS011;10403;54.092;12.122;2024-01-15T14:04:51;4.00;;;1.80;;
20488;SDS011;10403;54.092;12.122;2024-01-15T14:07:18;2.17;;;1.50;;
20488;SDS011;10403;54.092;12.122;2024-01-15T14:09:46;5.80;;;2.33;;
20488;SDS011;10403;54.092;12.122;2024-01-15T14:12:13;10.27;;;1.80;;
20488;SDS011;10403;54.092;12.122;2024-01-15T14:14:41;4.53;;;1.43;;
20488;SDS011;10403;54.092;12.122;2024-01-15T14:17:08;5.63;;;1.77;;
20488;SDS011;10403;54.092;12.122;2024-01-15T14:19:36;6.20;;;1.90;;
20488;SDS011;10403;54.092;12.122;2024-01-15T14:22:04;6.43;;;1.50;;
20488;SDS011;10403;54.092;12.122;2024-01-15T14:24:31;6.83;;;1.53;;
20488;SDS011;10403;54.092;12.122;2024-01-15T14:26:59;5.20;;;1.67;;
20488;SDS011;10403;54.092;12.122;2024-01-15T14:29:26;6.93;;;1.90;;
20488;SDS011;10403;54.092;12.122;2024-01-15T14:31:54;6.60;;;1.90;;
20488;SDS011;10403;54.092;12.122;2024-01-15T14:34:22;4.50;;;1.50;;
20488;SDS011;10403;54.092;12.122;2024-01-15T14:36:55;5.03;;;1.50;;
20488;SDS011;10403;54.092;12.122;2024-01-15T14:42:16;4.20;;;1.70;;
20488;SDS011;10403;54.092;12.122;2024-01-15T14:44:44;5.17;;;2.03;;
20488;SDS011;10403;54.092;12.122;2024-01-15T14:47:12;3.60;;;1.70;;
20488;SDS011;10403;54.092;12.122;2024-01-15T14:49:39;9.50;;;2.13;;